Time;durP1;ratioP1;P1;durP2;ratioP2;P2;SDS_P1;SDS_P2;PMS_P1;PMS_P2;Temp;Humidity;BMP_temperature;BMP_pressure;BME280_temperature;BME280_humidity;BME280_pressure;Samples;Min_cycle;Max_cycle;Signal;HPM_P1;HPM_P2
2021/05/20 00:01:26;;;;;;;0.70;0.50;;;;;;;;;;5050421;28;20932;-67
2021/05/20 00:03:52;;;;;;;1.03;0.70;;;;;;;;;;5050786;28;20476;-68
2021/05/20 00:06:18;;;;;;;4.50;1.13;;;;;;;;;;5045110;28;20431;-68
2021/05/20 00:08:44;;;;;;;1.50;1.40;;;;;;;;;;5051349;28;20475;-68
2021/05/20 00:11:10;;;;;;;0.90;0.50;;;;;;;;;;5050014;28;20382;-68
2021/05/20 00:13:36;;;;;;;0.70;0.60;;;;;;;;;;5051095;28;20383;-68
2021/05/20 00:16:02;;;;;;;1.73;0.70;;;;;;;;;;5049991;28;20458;-68
2021/05/20 00:18:28;;;;;;;1.23;0.80;;;;;;;;;;5050931;28;20398;-67
2021/05/20 00:20:54;;;;;;;0.70;0.47;;;;;;;;;;5049903;28;20996;-68
2021/05/20 00:23:20;;;;;;;3.47;0.90;;;;;;;;;;5066170;28;20393;-69
2021/05/20 00:25:46;;;;;;;0.83;0.70;;;;;;;;;;5050612;28;20400;-68
2021/05/20 00:28:12;;;;;;;2.40;0.70;;;;;;;;;;5049402;28;20555;-69
2021/05/20 00:30:38;;;;;;;0.80;0.50;;;;;;;;;;5049122;28;21041;-68
2021/05/20 00:33:04;;;;;;;2.30;1.50;;;;;;;;;;5049602;28;20403;-69
2021/05/20 00:35:30;;;;;;;0.80;0.70;;;;;;;;;;5050413;28;20464;-69
2021/05/20 00:37:55;;;;;;;1.03;0.60;;;;;;;;;;5032011;28;20426;-68
2021/05/20 00:40:21;;;;;;;0.70;0.50;;;;;;;;;;5049420;28;20414;-69
2021/05/20 00:42:48;;;;;;;1.20;0.80;;;;;;;;;;5050331;28;20423;-68
2021/05/20 00:45:15;;;;;;;1.27;0.63;;;;;;;;;;5050650;28;20399;-70
2021/05/20 00:47:41;;;;;;;0.77;0.47;;;;;;;;;;5050284;28;20516;-68
2021/05/20 00:50:08;;;;;;;1.40;0.60;;;;;;;;;;5049737;28;20415;-68
2021/05/20 00:52:34;;;;;;;0.80;0.60;;;;;;;;;;5049803;28;20426;-70
2021/05/20 00:55:01;;;;;;;0.70;0.40;;;;;;;;;;5050649;28;20370;-70
2021/05/20 00:57:27;;;;;;;1.03;0.70;;;;;;;;;;5050083;28;20407;-70
2021/05/20 00:59:53;;;;;;;1.10;0.80;;;;;;;;;;5049232;28;20818;-67
2021/05/20 01:02:20;;;;;;;0.70;0.40;;;;;;;;;;5050488;28;20410;-67
2021/05/20 01:04:46;;;;;;;3.47;2.00;;;;;;;;;;5050154;28;20456;-67
2021/05/20 01:07:12;;;;;;;0.70;0.50;;;;;;;;;;5050030;28;20419;-67
2021/05/20 01:09:38;;;;;;;0.80;0.73;;;;;;;;;;5049085;28;20386;-68
2021/05/20 01:12:05;;;;;;;1.43;1.30;;;;;;;;;;5050182;28;20395;-68
2021/05/20 01:14:41;;;;;;;4.93;0.70;;;;;;;;;;5050327;28;20405;-68
2021/05/20 01:17:08;;;;;;;0.80;0.60;;;;;;;;;;5050020;28;20429;-67
2021/05/20 01:19:45;;;;;;;0.70;0.50;;;;;;;;;;5049471;28;20421;-67
2021/05/20 01:22:11;;;;;;;1.27;1.00;;;;;;;;;;5049807;28;20399;-68
2021/05/20 01:24:37;;;;;;;0.80;0.50;;;;;;;;;;5049854;28;20760;-69
2021/05/20 01:27:04;;;;;;;0.90;0.60;;;;;;;;;;5050089;28;20761;-69
2021/05/20 01:29:30;;;;;;;0.83;0.70;;;;;;;;;;5048957;28;20485;-69
2021/05/20 01:31:56;;;;;;;0.70;0.50;;;;;;;;;;5050082;28;20485;-68
2021/05/20 01:34:22;;;;;;;0.70;0.40;;;;;;;;;;5049914;28;20403;-69
2021/05/20 01:36:48;;;;;;;6.00;1.70;;;;;;;;;;5049701;28;20409;-68
2021/05/20 01:39:14;;;;;;;0.70;0.40;;;;;;;;;;5049153;28;20505;-68
2021/05/20 01:41:40;;;;;;;0.90;0.67;;;;;;;;;;5049771;28;20439;-68
2021/05/20 01:44:06;;;;;;;0.80;0.60;;;;;;;;;;5050479;28;20895;-68
2021/05/20 01:46:32;;;;;;;0.70;0.50;;;;;;;;;;5053304;28;20401;-69
2021/05/20 01:48:58;;;;;;;0.80;0.57;;;;;;;;;;5052711;28;20471;-69
2021/05/20 01:51:24;;;;;;;0.70;0.50;;;;;;;;;;5053046;28;20395;-69
2021/05/20 01:53:51;;;;;;;0.83;0.50;;;;;;;;;;5053235;28;20894;-69
2021/05/20 01:56:18;;;;;;;0.70;0.50;;;;;;;;;;5053367;28;20418;-68
2021/05/20 01:58:44;;;;;;;3.23;0.67;;;;;;;;;;5053082;28;20451;-69
2021/05/20 02:01:10;;;;;;;0.80;0.70;;;;;;;;;;5052447;28;20414;-68
2021/05/20 02:03:37;;;;;;;1.37;0.60;;;;;;;;;;5053266;28;20434;-68
2021/05/20 02:06:03;;;;;;;0.70;0.50;;;;;;;;;;5053186;28;20395;-69
2021/05/20 02:08:30;;;;;;;0.70;0.60;;;;;;;;;;5052900;28;20832;-68
2021/05/20 02:10:57;;;;;;;1.00;0.60;;;;;;;;;;5052444;28;20433;-69
2021/05/20 02:13:23;;;;;;;0.70;0.50;;;;;;;;;;5052364;28;20408;-69
2021/05/20 02:15:49;;;;;;;0.70;0.50;;;;;;;;;;5052910;28;20419;-68
2021/05/20 02:18:15;;;;;;;0.80;0.57;;;;;;;;;;5052909;28;20462;-67
2021/05/20 02:20:41;;;;;;;0.80;0.70;;;;;;;;;;5051961;28;20403;-69
2021/05/20 02:23:07;;;;;;;0.80;0.60;;;;;;;;;;5053315;28;20410;-68
2021/05/20 02:25:33;;;;;;;1.50;1.40;;;;;;;;;;5052452;28;20418;-68
2021/05/20 02:28:00;;;;;;;0.70;0.60;;;;;;;;;;5052948;28;20466;-68
2021/05/20 02:30:26;;;;;;;4.73;4.53;;;;;;;;;;5052040;28;20411;-68
2021/05/20 02:32:54;;;;;;;24.43;23.40;;;;;;;;;;5052095;28;20427;-67
2021/05/20 02:35:21;;;;;;;16.83;16.03;;;;;;;;;;5052209;28;20485;-68
2021/05/20 02:37:47;;;;;;;0.80;0.70;;;;;;;;;;5052103;28;20884;-68
2021/05/20 02:40:13;;;;;;;0.80;0.60;;;;;;;;;;5051823;28;20414;-67
2021/05/20 02:42:40;;;;;;;0.80;0.60;;;;;;;;;;5052480;28;20414;-68
2021/05/20 02:45:07;;;;;;;0.80;0.63;;;;;;;;;;5033999;28;20392;-67
2021/05/20 02:47:33;;;;;;;6.37;0.83;;;;;;;;;;5052546;28;20470;-68
2021/05/20 02:49:59;;;;;;;0.70;0.53;;;;;;;;;;5050067;28;20405;-68
2021/05/20 02:52:25;;;;;;;0.70;0.50;;;;;;;;;;5053468;28;20411;-68
2021/05/20 02:54:51;;;;;;;0.70;0.50;;;;;;;;;;5062416;28;20417;-68
2021/05/20 02:57:17;;;;;;;1.00;0.90;;;;;;;;;;5049953;28;20533;-68
2021/05/20 02:59:43;;;;;;;0.70;0.60;;;;;;;;;;5042099;28;20443;-67
2021/05/20 03:02:09;;;;;;;0.97;0.87;;;;;;;;;;5051582;28;20751;-68
2021/05/20 03:04:36;;;;;;;1.00;0.80;;;;;;;;;;5051842;28;20462;-68
2021/05/20 03:07:03;;;;;;;0.97;0.70;;;;;;;;;;5052047;28;20840;-69
2021/05/20 03:09:29;;;;;;;7.23;6.83;;;;;;;;;;5050767;28;20855;-68
2021/05/20 03:11:57;;;;;;;0.80;0.50;;;;;;;;;;5050669;28;20512;-68
2021/05/20 03:14:23;;;;;;;4.23;3.93;;;;;;;;;;5051874;28;20403;-68
2021/05/20 03:16:49;;;;;;;144.33;134.50;;;;;;;;;;5051403;28;20418;-69
2021/05/20 03:19:15;;;;;;;81.67;76.77;;;;;;;;;;5050673;28;20805;-68
2021/05/20 03:21:41;;;;;;;74.77;70.07;;;;;;;;;;5067072;28;20774;-68
2021/05/20 03:24:08;;;;;;;29.30;27.50;;;;;;;;;;5049196;28;20410;-67
2021/05/20 03:26:34;;;;;;;65.23;61.43;;;;;;;;;;5051701;28;20493;-67
2021/05/20 03:29:00;;;;;;;6.27;5.97;;;;;;;;;;5051007;28;20443;-67
2021/05/20 03:31:26;;;;;;;1.90;1.80;;;;;;;;;;5051098;28;20505;-68
2021/05/20 03:33:52;;;;;;;3.20;3.00;;;;;;;;;;5051688;28;20450;-68
2021/05/20 03:36:18;;;;;;;6.87;6.50;;;;;;;;;;5051393;28;20474;-68
2021/05/20 03:38:44;;;;;;;7.13;6.80;;;;;;;;;;5051332;28;20405;-69
2021/05/20 03:41:10;;;;;;;1.17;0.67;;;;;;;;;;5050608;28;20421;-68
2021/05/20 03:43:37;;;;;;;1.07;0.70;;;;;;;;;;5051697;28;20768;-67
2021/05/20 03:46:03;;;;;;;0.97;0.60;;;;;;;;;;5051503;28;20393;-68
2021/05/20 03:48:29;;;;;;;0.93;0.63;;;;;;;;;;5051169;28;20463;-70
2021/05/20 03:50:56;;;;;;;26.27;25.03;;;;;;;;;;5050648;28;20417;-68
2021/05/20 03:53:22;;;;;;;4.10;3.90;;;;;;;;;;5050890;28;20415;-67
2021/05/20 03:55:49;;;;;;;2.97;2.20;;;;;;;;;;5050976;28;20430;-69
2021/05/20 03:58:16;;;;;;;3.37;2.60;;;;;;;;;;5051377;28;20972;-68
2021/05/20 04:00:42;;;;;;;2.40;2.30;;;;;;;;;;5050022;28;20423;-68
2021/05/20 04:03:08;;;;;;;2.00;1.90;;;;;;;;;;5050868;28;20805;-68
2021/05/20 04:05:33;;;;;;;6.10;5.80;;;;;;;;;;5049392;28;20468;-68
2021/05/20 04:08:00;;;;;;;6.73;4.30;;;;;;;;;;5049575;28;20462;-68
2021/05/20 04:10:26;;;;;;;1.80;1.70;;;;;;;;;;5049524;28;20380;-68
2021/05/20 04:12:52;;;;;;;1.30;1.20;;;;;;;;;;5050537;28;20920;-68
2021/05/20 04:15:18;;;;;;;31.43;29.40;;;;;;;;;;5062816;28;20775;-69
2021/05/20 04:17:44;;;;;;;22.67;20.83;;;;;;;;;;5057284;28;20417;-70
2021/05/20 04:20:10;;;;;;;33.83;32.10;;;;;;;;;;5050297;28;20389;-67
2021/05/20 04:22:36;;;;;;;9.97;9.57;;;;;;;;;;5050152;28;20446;-70
2021/05/20 04:25:03;;;;;;;12.07;11.33;;;;;;;;;;5031673;28;20481;-68
2021/05/20 04:27:29;;;;;;;15.50;14.83;;;;;;;;;;5050019;28;20799;-67
2021/05/20 04:29:58;;;;;;;4.50;2.17;;;;;;;;;;5049311;28;20397;-67
2021/05/20 04:32:24;;;;;;;1.00;0.90;;;;;;;;;;5049750;28;20411;-69
2021/05/20 04:34:50;;;;;;;0.80;0.60;;;;;;;;;;5050429;28;20434;-70
2021/05/20 04:37:16;;;;;;;1.20;0.60;;;;;;;;;;5050073;28;20480;-70
2021/05/20 04:39:43;;;;;;;1.40;1.30;;;;;;;;;;5049471;28;20900;-69
2021/05/20 04:42:08;;;;;;;1.00;0.70;;;;;;;;;;5050266;28;20517;-70
2021/05/20 04:44:34;;;;;;;3.27;0.80;;;;;;;;;;5049788;28;20398;-70
2021/05/20 04:47:00;;;;;;;1.27;1.17;;;;;;;;;;5050639;28;20378;-69
2021/05/20 04:49:26;;;;;;;0.93;0.70;;;;;;;;;;5042013;28;21531;-70
2021/05/20 04:51:52;;;;;;;1.33;0.93;;;;;;;;;;5039576;28;20419;-69
2021/05/20 04:54:18;;;;;;;1.67;1.53;;;;;;;;;;5041981;28;20415;-69
2021/05/20 04:56:44;;;;;;;1.00;0.87;;;;;;;;;;5048460;28;20891;-69
2021/05/20 04:59:10;;;;;;;1.97;1.13;;;;;;;;;;5047970;28;20468;-71
2021/05/20 05:01:36;;;;;;;0.97;0.87;;;;;;;;;;5049552;28;20479;-69
2021/05/20 05:04:02;;;;;;;2.40;1.73;;;;;;;;;;5045907;28;20421;-68
2021/05/20 05:06:28;;;;;;;2.10;0.93;;;;;;;;;;5048237;28;20406;-67
2021/05/20 05:08:54;;;;;;;0.80;0.80;;;;;;;;;;5047155;28;21036;-68
2021/05/20 05:11:20;;;;;;;2.23;1.20;;;;;;;;;;5047027;28;20409;-69
2021/05/20 05:13:46;;;;;;;3.53;1.07;;;;;;;;;;5040992;28;20536;-69
2021/05/20 05:16:12;;;;;;;1.93;1.07;;;;;;;;;;5047889;28;20701;-70
2021/05/20 05:18:38;;;;;;;1.10;0.97;;;;;;;;;;5044324;28;20508;-68
2021/05/20 05:21:04;;;;;;;1.30;1.00;;;;;;;;;;5048740;28;20415;-68
2021/05/20 05:23:30;;;;;;;2.03;0.83;;;;;;;;;;5051512;28;20472;-69
2021/05/20 05:25:56;;;;;;;3.33;1.53;;;;;;;;;;5050728;28;20882;-66
2021/05/20 05:28:22;;;;;;;11.27;10.73;;;;;;;;;;5052506;28;20437;-68
2021/05/20 05:30:48;;;;;;;9.20;8.70;;;;;;;;;;5052063;28;20402;-69
2021/05/20 05:33:14;;;;;;;4.40;4.20;;;;;;;;;;5052696;28;20403;-69
2021/05/20 05:35:40;;;;;;;2.33;2.13;;;;;;;;;;5052825;28;20532;-69
2021/05/20 05:38:06;;;;;;;1.90;1.80;;;;;;;;;;5052507;28;20966;-69
2021/05/20 05:40:33;;;;;;;1.47;0.80;;;;;;;;;;5051788;28;20843;-69
2021/05/20 05:42:59;;;;;;;1.07;0.97;;;;;;;;;;5052741;28;20411;-68
2021/05/20 05:45:25;;;;;;;2.80;1.30;;;;;;;;;;5051278;28;20407;-68
2021/05/20 05:47:51;;;;;;;2.53;0.83;;;;;;;;;;5050988;28;20549;-68
2021/05/20 05:50:16;;;;;;;0.80;0.70;;;;;;;;;;5050491;28;20502;-68
2021/05/20 05:52:42;;;;;;;1.00;0.70;;;;;;;;;;5052802;28;20808;-68
2021/05/20 05:55:09;;;;;;;1.33;1.23;;;;;;;;;;5052559;28;20386;-70
2021/05/20 05:57:35;;;;;;;1.17;0.77;;;;;;;;;;5044303;28;20427;-69
2021/05/20 06:00:01;;;;;;;8.47;1.30;;;;;;;;;;5051560;28;20461;-68
2021/05/20 06:02:27;;;;;;;2.20;1.17;;;;;;;;;;5051685;28;20411;-68
2021/05/20 06:04:53;;;;;;;1.67;0.83;;;;;;;;;;5052616;28;20414;-69
2021/05/20 06:07:20;;;;;;;1.57;0.97;;;;;;;;;;5051774;28;20379;-69
2021/05/20 06:09:46;;;;;;;1.20;1.10;;;;;;;;;;5051210;28;20764;-69
2021/05/20 06:12:13;;;;;;;1.30;1.20;;;;;;;;;;5051381;28;20439;-69
2021/05/20 06:14:42;;;;;;;1.70;1.60;;;;;;;;;;5054818;28;20381;-70
2021/05/20 06:17:08;;;;;;;2.97;0.90;;;;;;;;;;5051919;28;20386;-68
2021/05/20 06:19:34;;;;;;;1.53;1.07;;;;;;;;;;5051003;28;20484;-68
2021/05/20 06:22:00;;;;;;;1.30;0.90;;;;;;;;;;5051585;28;20625;-68
2021/05/20 06:24:26;;;;;;;1.40;0.70;;;;;;;;;;5051519;28;20441;-68
2021/05/20 06:26:52;;;;;;;0.90;0.60;;;;;;;;;;5032792;28;20841;-68
2021/05/20 06:29:18;;;;;;;3.67;1.30;;;;;;;;;;5050423;28;20513;-68
2021/05/20 06:31:44;;;;;;;4.67;1.00;;;;;;;;;;5050164;28;20411;-69
2021/05/20 06:34:10;;;;;;;1.30;1.10;;;;;;;;;;5051016;28;20453;-69
2021/05/20 06:36:37;;;;;;;1.03;0.87;;;;;;;;;;5050879;28;20422;-68
2021/05/20 06:39:04;;;;;;;2.50;2.03;;;;;;;;;;5051667;28;20457;-68
2021/05/20 06:41:30;;;;;;;1.43;0.93;;;;;;;;;;5050894;28;20393;-68
2021/05/20 06:43:56;;;;;;;1.17;1.03;;;;;;;;;;5051284;28;20433;-69
2021/05/20 06:46:22;;;;;;;1.53;0.80;;;;;;;;;;5051424;28;20414;-68
2021/05/20 06:48:48;;;;;;;1.70;0.93;;;;;;;;;;5050867;28;20565;-68
2021/05/20 06:51:14;;;;;;;4.10;1.77;;;;;;;;;;5049652;28;20502;-68
2021/05/20 06:53:40;;;;;;;0.83;0.70;;;;;;;;;;5051388;28;20937;-69
2021/05/20 06:56:10;;;;;;;1.03;0.93;;;;;;;;;;5050782;28;20449;-68
2021/05/20 07:01:21;;;;;;;0.80;0.60;;;;;;;;;;5049978;28;20425;-68
2021/05/20 07:03:47;;;;;;;1.17;0.80;;;;;;;;;;5051129;28;20408;-69
2021/05/20 07:06:13;;;;;;;1.93;0.87;;;;;;;;;;5050747;28;20501;-69
2021/05/20 07:08:39;;;;;;;1.30;1.13;;;;;;;;;;5050882;28;20547;-68
2021/05/20 07:11:08;;;;;;;0.70;0.50;;;;;;;;;;5050344;28;20382;-68
2021/05/20 07:13:34;;;;;;;1.87;0.77;;;;;;;;;;5051201;28;20970;-68
2021/05/20 07:16:00;;;;;;;2.73;1.30;;;;;;;;;;5050695;28;20447;-68
2021/05/20 07:18:26;;;;;;;1.13;0.90;;;;;;;;;;5050256;28;20449;-69
2021/05/20 07:20:51;;;;;;;0.70;0.50;;;;;;;;;;5050059;28;20381;-69
2021/05/20 07:23:18;;;;;;;1.40;1.03;;;;;;;;;;5050659;28;20407;-68
2021/05/20 07:25:45;;;;;;;2.63;1.27;;;;;;;;;;5050964;28;20472;-68
2021/05/20 07:28:11;;;;;;;1.30;0.80;;;;;;;;;;5050890;28;20827;-71
2021/05/20 07:30:37;;;;;;;1.73;0.80;;;;;;;;;;5047005;28;20417;-70
2021/05/20 07:33:04;;;;;;;0.70;0.50;;;;;;;;;;5050665;28;20889;-69
2021/05/20 07:35:30;;;;;;;1.10;1.00;;;;;;;;;;5049413;28;20419;-69
2021/05/20 07:37:56;;;;;;;1.73;1.23;;;;;;;;;;5050624;28;20842;-69
2021/05/20 07:40:22;;;;;;;0.80;0.80;;;;;;;;;;5048966;28;20491;-69
2021/05/20 07:42:48;;;;;;;1.53;0.70;;;;;;;;;;5050366;28;20501;-69
2021/05/20 07:45:15;;;;;;;0.87;0.60;;;;;;;;;;5050285;28;20889;-69
2021/05/20 07:47:42;;;;;;;1.20;0.80;;;;;;;;;;5032527;28;20448;-68
2021/05/20 07:50:08;;;;;;;1.63;0.70;;;;;;;;;;5049219;28;20422;-69
2021/05/20 07:52:34;;;;;;;3.33;1.03;;;;;;;;;;5049112;28;20382;-69
2021/05/20 07:55:00;;;;;;;1.70;0.93;;;;;;;;;;5049789;28;20388;-69
2021/05/20 07:57:26;;;;;;;1.70;1.03;;;;;;;;;;5050056;28;20396;-69
2021/05/20 07:59:52;;;;;;;3.47;1.07;;;;;;;;;;5049330;28;20416;-69
2021/05/20 08:02:31;;;;;;;1.33;1.13;;;;;;;;;;5049596;28;20388;-68
2021/05/20 08:05:06;;;;;;;0.90;0.57;;;;;;;;;;5050348;28;20429;-68
2021/05/20 08:07:46;;;;;;;7.77;1.03;;;;;;;;;;5049721;28;20515;-69
2021/05/20 08:12:41;;;;;;;2.40;2.13;;;;;;;;;;5050011;28;20378;-69
2021/05/20 08:15:07;;;;;;;1.00;0.80;;;;;;;;;;5052655;28;20951;-69
2021/05/20 08:17:34;;;;;;;2.63;0.80;;;;;;;;;;5049544;28;21059;-68
2021/05/20 08:19:59;;;;;;;1.00;0.93;;;;;;;;;;5049582;28;20413;-68
2021/05/20 08:22:26;;;;;;;0.70;0.50;;;;;;;;;;5049873;28;20494;-68
2021/05/20 08:24:53;;;;;;;1.00;0.70;;;;;;;;;;5049323;28;20941;-68
2021/05/20 08:27:19;;;;;;;1.17;0.77;;;;;;;;;;5049162;28;20511;-69
2021/05/20 08:29:45;;;;;;;1.00;0.80;;;;;;;;;;5048980;28;20902;-68
2021/05/20 08:32:11;;;;;;;1.00;0.90;;;;;;;;;;5049060;28;20381;-68
2021/05/20 08:34:39;;;;;;;0.90;0.63;;;;;;;;;;5049605;28;20377;-68
2021/05/20 08:37:05;;;;;;;1.10;0.70;;;;;;;;;;5048924;28;20469;-72
2021/05/20 08:39:31;;;;;;;0.80;0.70;;;;;;;;;;5048536;28;20584;-70
2021/05/20 08:41:58;;;;;;;1.13;0.70;;;;;;;;;;5047325;28;20771;-70
2021/05/20 08:44:25;;;;;;;1.07;0.80;;;;;;;;;;5048440;28;20786;-69
2021/05/20 08:46:55;;;;;;;1.57;0.77;;;;;;;;;;5049448;28;20378;-69
2021/05/20 08:49:21;;;;;;;1.00;0.93;;;;;;;;;;5049148;28;20849;-70
2021/05/20 08:51:47;;;;;;;0.73;0.60;;;;;;;;;;5049512;28;20431;-70
2021/05/20 08:54:13;;;;;;;0.73;0.57;;;;;;;;;;5050422;28;20417;-69
2021/05/20 08:56:43;;;;;;;0.87;0.80;;;;;;;;;;5052660;28;20771;-69
2021/05/20 08:59:09;;;;;;;4.60;0.77;;;;;;;;;;5082137;22;20456;-70
2021/05/20 09:01:36;;;;;;;1.63;1.27;;;;;;;;;;5080212;28;20393;-70
2021/05/20 09:04:02;;;;;;;1.10;0.63;;;;;;;;;;5074259;28;20407;-69
2021/05/20 09:07:04;;;;;;;0.87;0.80;;;;;;;;;;5072640;28;20957;-70
2021/05/20 09:09:35;;;;;;;1.07;0.77;;;;;;;;;;5071370;28;20526;-70
2021/05/20 09:12:01;;;;;;;1.23;0.70;;;;;;;;;;5068601;28;20437;-68
2021/05/20 09:14:31;;;;;;;0.80;0.60;;;;;;;;;;5070924;28;20935;-69
2021/05/20 09:17:17;;;;;;;0.80;0.60;;;;;;;;;;5074137;28;21032;-69
2021/05/20 09:19:45;;;;;;;1.13;1.03;;;;;;;;;;5077543;28;20445;-68
2021/05/20 09:22:13;;;;;;;0.87;0.53;;;;;;;;;;5073340;28;20499;-69
2021/05/20 09:24:52;;;;;;;0.80;0.73;;;;;;;;;;5075664;28;20516;-69
2021/05/20 09:27:31;;;;;;;0.90;0.80;;;;;;;;;;5079885;28;20419;-68
2021/05/20 09:30:06;;;;;;;1.20;1.10;;;;;;;;;;5077940;28;20761;-68
2021/05/20 09:32:42;;;;;;;10.83;0.83;;;;;;;;;;5079303;28;20420;-71
2021/05/20 09:35:09;;;;;;;1.20;1.10;;;;;;;;;;5080211;28;20559;-69
2021/05/20 09:37:44;;;;;;;1.43;1.00;;;;;;;;;;5074378;28;20488;-69
2021/05/20 09:40:10;;;;;;;0.83;0.70;;;;;;;;;;5076949;28;20384;-70
2021/05/20 09:42:36;;;;;;;1.00;0.70;;;;;;;;;;5076938;28;20444;-68
2021/05/20 09:45:09;;;;;;;1.20;0.70;;;;;;;;;;5081025;28;20480;-69
2021/05/20 09:47:35;;;;;;;0.90;0.60;;;;;;;;;;5075997;28;20436;-69
2021/05/20 09:50:04;;;;;;;1.17;0.70;;;;;;;;;;5072320;28;20397;-69
2021/05/20 09:52:30;;;;;;;1.20;0.70;;;;;;;;;;5081349;28;20601;-69
2021/05/20 09:54:56;;;;;;;1.03;0.67;;;;;;;;;;5085285;28;20874;-68
2021/05/20 09:57:29;;;;;;;1.67;0.80;;;;;;;;;;5081943;28;20401;-69
2021/05/20 10:00:08;;;;;;;1.00;0.80;;;;;;;;;;5083566;28;20518;-68
2021/05/20 10:02:34;;;;;;;1.17;0.87;;;;;;;;;;5079809;28;20496;-68
2021/05/20 10:05:18;;;;;;;1.30;0.70;;;;;;;;;;5058130;28;20381;-67
2021/05/20 10:07:44;;;;;;;1.10;0.80;;;;;;;;;;5072908;28;20401;-69
2021/05/20 10:10:10;;;;;;;0.87;0.70;;;;;;;;;;5071599;28;20505;-69
2021/05/20 10:12:39;;;;;;;0.97;0.80;;;;;;;;;;5090262;28;20910;-69
2021/05/20 10:15:05;;;;;;;2.03;1.07;;;;;;;;;;5074782;28;20422;-69
2021/05/20 10:17:31;;;;;;;2.27;0.87;;;;;;;;;;5064242;28;20524;-70
2021/05/20 10:19:57;;;;;;;0.80;0.70;;;;;;;;;;5075656;28;20448;-68
2021/05/20 10:22:23;;;;;;;1.03;0.80;;;;;;;;;;5077475;28;20480;-70
2021/05/20 10:24:50;;;;;;;3.33;0.70;;;;;;;;;;5083011;28;20418;-70
2021/05/20 10:27:18;;;;;;;0.80;0.67;;;;;;;;;;5061354;28;20384;-69
2021/05/20 10:29:44;;;;;;;1.77;1.10;;;;;;;;;;5076406;28;21001;-68
2021/05/20 10:32:10;;;;;;;1.17;0.80;;;;;;;;;;5072607;28;20421;-70
2021/05/20 10:34:36;;;;;;;0.80;0.63;;;;;;;;;;5073339;28;20428;-68
2021/05/20 10:37:04;;;;;;;0.90;0.70;;;;;;;;;;5073237;28;20400;-69
2021/05/20 10:39:30;;;;;;;0.80;0.70;;;;;;;;;;5070174;28;20843;-69
2021/05/20 10:41:56;;;;;;;1.10;1.00;;;;;;;;;;5069377;28;20475;-69
2021/05/20 10:44:23;;;;;;;0.80;0.60;;;;;;;;;;5074673;28;20409;-68
2021/05/20 10:46:58;;;;;;;1.67;1.27;;;;;;;;;;5071562;28;20400;-69
2021/05/20 10:49:43;;;;;;;0.90;0.70;;;;;;;;;;5070673;28;21188;-70
2021/05/20 10:52:29;;;;;;;2.23;0.60;;;;;;;;;;5072991;28;20405;-69
2021/05/20 10:55:02;;;;;;;1.27;0.90;;;;;;;;;;5073387;28;20968;-69
2021/05/20 10:57:46;;;;;;;0.90;0.70;;;;;;;;;;5073791;28;20386;-71
2021/05/20 11:00:30;;;;;;;3.10;0.77;;;;;;;;;;5072241;28;20532;-69
2021/05/20 11:02:59;;;;;;;1.17;0.80;;;;;;;;;;5073298;28;20402;-69
2021/05/20 11:05:43;;;;;;;0.97;0.87;;;;;;;;;;5073670;28;20868;-70
2021/05/20 11:08:10;;;;;;;2.17;1.13;;;;;;;;;;5073039;28;20458;-69
2021/05/20 11:10:36;;;;;;;0.80;0.60;;;;;;;;;;5072442;28;20393;-69
2021/05/20 11:13:02;;;;;;;0.80;0.67;;;;;;;;;;5073344;28;20409;-69
2021/05/20 11:15:28;;;;;;;1.07;0.60;;;;;;;;;;5072721;28;20655;-70
2021/05/20 11:17:54;;;;;;;1.77;0.90;;;;;;;;;;5072829;28;20858;-69
2021/05/20 11:20:36;;;;;;;1.13;1.03;;;;;;;;;;5072574;28;20422;-70
2021/05/20 11:23:20;;;;;;;2.20;1.73;;;;;;;;;;5073395;28;20402;-70
2021/05/20 11:25:46;;;;;;;0.90;0.80;;;;;;;;;;5081711;28;20401;-71
2021/05/20 11:28:12;;;;;;;1.20;0.87;;;;;;;;;;5082583;28;20461;-67
2021/05/20 11:30:38;;;;;;;1.27;0.90;;;;;;;;;;5072335;28;20409;-68
2021/05/20 11:33:05;;;;;;;1.37;1.00;;;;;;;;;;5073106;28;20384;-69
2021/05/20 11:38:00;;;;;;;0.90;0.60;;;;;;;;;;5072640;28;20384;-70
2021/05/20 11:40:25;;;;;;;1.10;1.00;;;;;;;;;;5071746;28;20399;-69
2021/05/20 11:42:51;;;;;;;1.27;0.80;;;;;;;;;;5053873;28;20895;-68
2021/05/20 11:45:27;;;;;;;1.07;0.87;;;;;;;;;;5072750;28;20402;-66
2021/05/20 11:47:54;;;;;;;1.57;0.87;;;;;;;;;;5072293;28;20433;-68
2021/05/20 11:50:21;;;;;;;1.80;1.10;;;;;;;;;;5071601;28;20767;-70
2021/05/20 11:52:47;;;;;;;1.17;0.83;;;;;;;;;;5072497;28;20429;-69
2021/05/20 11:55:13;;;;;;;1.00;0.60;;;;;;;;;;5054112;28;20421;-68
2021/05/20 11:57:39;;;;;;;1.00;0.63;;;;;;;;;;5070864;28;20434;-70
2021/05/20 12:00:05;;;;;;;1.40;1.30;;;;;;;;;;5069862;28;20433;-69
2021/05/20 12:02:34;;;;;;;1.03;0.93;;;;;;;;;;5069744;28;20414;-70
2021/05/20 12:05:10;;;;;;;1.00;0.90;;;;;;;;;;5059870;28;20369;-69
2021/05/20 12:07:38;;;;;;;2.13;0.87;;;;;;;;;;5066710;28;20419;-69
2021/05/20 12:10:13;;;;;;;1.23;0.83;;;;;;;;;;5068929;28;20477;-68
2021/05/20 12:12:40;;;;;;;1.87;0.87;;;;;;;;;;5071710;28;20417;-69
2021/05/20 12:15:10;;;;;;;2.40;1.07;;;;;;;;;;5079559;28;20433;-70
2021/05/20 12:17:36;;;;;;;1.37;0.77;;;;;;;;;;5056885;28;20970;-70
2021/05/20 12:20:02;;;;;;;1.63;1.53;;;;;;;;;;5078942;28;20422;-70
2021/05/20 12:22:29;;;;;;;1.43;0.90;;;;;;;;;;5076289;28;20406;-69
2021/05/20 12:24:56;;;;;;;1.73;1.63;;;;;;;;;;5071513;28;20380;-69
2021/05/20 12:27:22;;;;;;;0.93;0.70;;;;;;;;;;5070963;28;20488;-68
2021/05/20 12:29:56;;;;;;;1.73;1.10;;;;;;;;;;5069679;28;20887;-69
2021/05/20 12:32:22;;;;;;;1.20;1.10;;;;;;;;;;5070765;28;20837;-69
2021/05/20 12:34:49;;;;;;;1.20;0.70;;;;;;;;;;5072892;28;20489;-68
2021/05/20 12:37:14;;;;;;;0.80;0.57;;;;;;;;;;5079313;28;20808;-69
2021/05/20 12:39:47;;;;;;;0.70;0.50;;;;;;;;;;5073771;28;20430;-70
2021/05/20 12:42:16;;;;;;;0.70;0.50;;;;;;;;;;5070858;28;20418;-68
2021/05/20 12:44:42;;;;;;;0.80;0.60;;;;;;;;;;5066045;28;20529;-70
2021/05/20 12:47:17;;;;;;;0.80;0.60;;;;;;;;;;5073583;28;20919;-71
2021/05/20 12:49:55;;;;;;;0.90;0.60;;;;;;;;;;5080336;28;20538;-70
2021/05/20 12:52:21;;;;;;;0.80;0.60;;;;;;;;;;5069158;28;20376;-70
2021/05/20 12:54:47;;;;;;;2.53;1.77;;;;;;;;;;5080384;28;20413;-69
2021/05/20 12:57:13;;;;;;;0.80;0.63;;;;;;;;;;5077637;28;20472;-67
2021/05/20 12:59:41;;;;;;;0.90;0.70;;;;;;;;;;5071672;28;21022;-70
2021/05/20 13:02:08;;;;;;;2.80;2.60;;;;;;;;;;5073045;28;20793;-68
2021/05/20 13:04:34;;;;;;;0.80;0.60;;;;;;;;;;5069520;28;21023;-70
2021/05/20 13:07:00;;;;;;;1.20;0.90;;;;;;;;;;5065360;28;20401;-69
2021/05/20 13:09:29;;;;;;;1.10;1.00;;;;;;;;;;5059453;28;20523;-70
2021/05/20 13:12:00;;;;;;;1.20;0.80;;;;;;;;;;5073044;28;20417;-69
2021/05/20 13:14:39;;;;;;;1.00;0.50;;;;;;;;;;5068132;28;20449;-70
2021/05/20 13:17:19;;;;;;;0.70;0.60;;;;;;;;;;5072749;28;20419;-69
2021/05/20 13:22:31;;;;;;;0.70;0.40;;;;;;;;;;5071127;28;20397;-71
2021/05/20 13:25:03;;;;;;;0.80;0.50;;;;;;;;;;5075251;28;20514;-69
2021/05/20 13:27:30;;;;;;;0.87;0.53;;;;;;;;;;5073008;28;20428;-70
2021/05/20 13:30:00;;;;;;;0.73;0.60;;;;;;;;;;5073122;28;20428;-68
2021/05/20 13:35:02;;;;;;;0.70;0.50;;;;;;;;;;5074212;28;20757;-69
2021/05/20 13:37:28;;;;;;;0.77;0.60;;;;;;;;;;5070028;28;20474;-69
2021/05/20 13:39:54;;;;;;;0.80;0.50;;;;;;;;;;5075071;28;20806;-70
2021/05/20 13:42:20;;;;;;;0.80;0.70;;;;;;;;;;5076368;28;20739;-70
2021/05/20 13:44:51;;;;;;;1.10;0.90;;;;;;;;;;5055823;28;20474;-67
2021/05/20 13:47:18;;;;;;;0.80;0.50;;;;;;;;;;5072993;28;20427;-69
2021/05/20 13:49:45;;;;;;;1.27;0.70;;;;;;;;;;5078646;28;20457;-69
2021/05/20 13:52:15;;;;;;;0.93;0.80;;;;;;;;;;5075752;28;20424;-69
2021/05/20 13:54:43;;;;;;;0.70;0.50;;;;;;;;;;5071904;28;20387;-70
2021/05/20 13:57:09;;;;;;;0.80;0.50;;;;;;;;;;5082105;28;20394;-68
2021/05/20 13:59:35;;;;;;;4.73;0.70;;;;;;;;;;5085765;28;20421;-67
2021/05/20 14:02:03;;;;;;;0.80;0.60;;;;;;;;;;5076927;28;20839;-70
2021/05/20 14:04:38;;;;;;;0.80;0.50;;;;;;;;;;5067566;28;20469;-70
2021/05/20 14:07:05;;;;;;;0.80;0.50;;;;;;;;;;5073113;28;20392;-67
2021/05/20 14:09:31;;;;;;;0.70;0.50;;;;;;;;;;5074647;28;20852;-71
2021/05/20 14:11:57;;;;;;;0.80;0.50;;;;;;;;;;5075949;28;20385;-70
2021/05/20 14:14:23;;;;;;;1.20;0.70;;;;;;;;;;5055370;28;20509;-67
2021/05/20 14:16:49;;;;;;;0.90;0.70;;;;;;;;;;5072895;28;20410;-71
2021/05/20 14:19:15;;;;;;;1.40;1.10;;;;;;;;;;5072166;28;20446;-69
2021/05/20 14:21:41;;;;;;;0.90;0.70;;;;;;;;;;5073865;28;20425;-68
2021/05/20 14:24:08;;;;;;;0.87;0.70;;;;;;;;;;5074087;28;20414;-69
2021/05/20 14:26:35;;;;;;;1.07;0.97;;;;;;;;;;5056303;28;20453;-70
2021/05/20 14:29:01;;;;;;;1.80;1.03;;;;;;;;;;5076925;28;20547;-70
2021/05/20 14:31:27;;;;;;;2.47;2.27;;;;;;;;;;5081549;28;20514;-70
2021/05/20 14:33:52;;;;;;;1.33;0.80;;;;;;;;;;5072884;28;20421;-69
2021/05/20 14:36:18;;;;;;;0.90;0.70;;;;;;;;;;5072600;28;20938;-68
2021/05/20 14:38:44;;;;;;;1.27;1.17;;;;;;;;;;5072519;28;20420;-70
2021/05/20 14:41:10;;;;;;;1.03;0.77;;;;;;;;;;5071856;28;20387;-69
2021/05/20 14:43:36;;;;;;;1.10;0.73;;;;;;;;;;5072532;28;20402;-70
2021/05/20 14:46:02;;;;;;;1.40;1.30;;;;;;;;;;5072304;28;20447;-70
2021/05/20 14:48:29;;;;;;;0.90;0.80;;;;;;;;;;5071748;28;20486;-69
2021/05/20 14:54:05;;;;;;;0.90;0.70;;;;;;;;;;5076865;28;20451;-71
2021/05/20 15:07:10;;;;;;;1.30;1.00;;;;;;;;;;5073012;28;20492;-68
2021/05/20 15:09:51;;;;;;;1.10;0.73;;;;;;;;;;5079745;28;20966;-68